This is the latest recevied weather packets stored in our database for station/object KC0QBU-13. If no packets are shown the sender has not sent any weather packets the latest 10 day(s).
| Time | Temp. | Humidity | Pressure | Rain* | Wind** | Luminosity | Snow |
|---|---|---|---|---|---|---|---|
| 1777907104 | 21.67° C | 50% | 1005.9 hPa | 0 mm | - | - | - |
| 1777905903 | 21.11° C | 51% | 1005.8 hPa | 0 mm | - | - | - |
| 1777905004 | 20° C | 53% | 1006 hPa | 0 mm | - | - | - |
| 1777900204 | 18.89° C | 53% | 1005.6 hPa | 0 mm | - | - | - |
| 1777899604 | 18.89° C | 54% | 1005.7 hPa | 0 mm | - | - | - |
| 1777899003 | 18.33° C | 53% | 1005.7 hPa | 0 mm | - | - | - |
| 1777898403 | 18.33° C | 53% | 1005.8 hPa | 0 mm | - | - | - |
| 1777897203 | 17.78° C | 54% | 1005.9 hPa | 0 mm | - | - | - |
| 1777894503 | 17.78° C | 53% | 1005.7 hPa | 0 mm | - | - | - |
| 1777892703 | 17.78° C | 53% | 1006.1 hPa | 0 mm | - | - | - |
| 1777892104 | 18.33° C | 51% | 1006.3 hPa | 0 mm | - | - | - |
| 1777889404 | 18.89° C | 49% | 1006.1 hPa | 0 mm | - | - | - |
| 1777889103 | 18.89° C | 49% | 1006.1 hPa | 0 mm | - | - | - |
| 1777887604 | 19.44° C | 48% | 1006.4 hPa | 0 mm | - | - | - |
| 1777887003 | 19.44° C | 48% | 1006.5 hPa | 0 mm | - | - | - |
| 1777886103 | 19.44° C | 48% | 1006.3 hPa | 0 mm | - | - | - |
| 1777884904 | 19.44° C | 48% | 1006.4 hPa | 0 mm | - | - | - |
| 1777884603 | 19.44° C | 48% | 1006.5 hPa | 0 mm | - | - | - |
| 1777884304 | 19.44° C | 48% | 1006.5 hPa | 0 mm | - | - | - |
| 1777884003 | 18.89° C | 49% | 1006.6 hPa | 0 mm | - | - | - |
| 1777882503 | 18.33° C | 51% | 1006.9 hPa | 0 mm | - | - | - |
| 1777881904 | 18.33° C | 52% | 1007 hPa | 0 mm | - | - | - |
| 1777881303 | 17.78° C | 53% | 1007.1 hPa | 0 mm | - | - | - |
| 1777879203 | 16.11° C | 61% | 1007.6 hPa | 0 mm | - | - | - |
| 1777874703 | 17.22° C | 56% | 1008.7 hPa | 0 mm | - | - | - |
* Rain latest hour (hover to see other rain measurements)
** Current wind speed in m/s (hover to see current wind gust speed)